Time;durP1;ratioP1;P1;durP2;ratioP2;P2;SDS_P1;SDS_P2;PMS_P1;PMS_P2;Temp;Humidity;BMP_temperature;BMP_pressure;BME280_temperature;BME280_humidity;BME280_pressure;Samples;Min_cycle;Max_cycle;Signal;HPM_P1;HPM_P2
2021/07/04 00:00:42;;;;;;;2.65;1.67;;;;;;;15.99;49.13;101239.81;5043332;28;20036;-69
2021/07/04 00:03:10;;;;;;;;;;;;;;;15.93;49.16;101237.53;5026140;28;20103;-68
2021/07/04 00:06:00;;;;;;;2.75;2.55;;;;;;;15.91;49.14;101233.28;5043516;28;19928;-67
2021/07/04 00:08:26;;;;;;;2.90;1.85;;;;;;;15.82;49.70;101237.28;5038189;28;20024;-68
2021/07/04 00:11:04;;;;;;;4.97;2.28;;;;;;;15.89;49.33;101229.88;5039550;28;20516;-68
2021/07/04 00:13:30;;;;;;;2.85;2.08;;;;;;;15.99;49.26;101231.91;5036536;28;20037;-68
2021/07/04 00:15:56;;;;;;;5.22;1.95;;;;;;;15.87;49.53;101229.97;5040008;28;20474;-67
2021/07/04 00:18:25;;;;;;;3.13;2.10;;;;;;;15.88;49.71;101218.47;5034018;28;20115;-68
2021/07/04 00:20:53;;;;;;;2.83;1.90;;;;;;;15.84;49.65;101219.59;5035074;28;20398;-68
2021/07/04 00:23:19;;;;;;;3.03;2.13;;;;;;;15.80;49.97;101212.81;5038633;28;20033;-68
2021/07/04 00:25:46;;;;;;;3.50;1.60;;;;;;;15.86;49.76;101219.50;5039667;28;20067;-68
2021/07/04 00:28:12;;;;;;;3.17;2.05;;;;;;;15.85;49.99;101212.53;5040685;28;20040;-68
2021/07/04 00:30:38;;;;;;;2.22;2.00;;;;;;;15.88;50.13;101215.00;5042516;28;20025;-68
2021/07/04 00:33:04;;;;;;;2.67;2.13;;;;;;;15.91;49.65;101217.47;5039903;28;20051;-69
2021/07/04 00:35:30;;;;;;;2.65;2.10;;;;;;;15.88;50.35;101212.34;5039033;28;20623;-69
2021/07/04 00:37:56;;;;;;;3.00;1.98;;;;;;;15.87;50.16;101215.94;5042921;28;20318;-69
2021/07/04 00:40:24;;;;;;;3.15;2.30;;;;;;;15.88;50.17;101201.81;5038185;28;20025;-68
2021/07/04 00:42:49;;;;;;;4.60;2.50;;;;;;;15.94;49.73;101193.56;5038416;28;20069;-68
2021/07/04 00:45:20;;;;;;;5.53;2.13;;;;;;;15.92;50.06;101198.91;5041215;28;20481;-68
2021/07/04 00:47:48;;;;;;;3.75;2.65;;;;;;;15.89;50.17;101193.81;5041570;28;20040;-68
2021/07/04 00:50:18;;;;;;;3.03;2.38;;;;;;;15.92;50.06;101187.53;5050706;28;20064;-68
2021/07/04 00:52:44;;;;;;;3.83;2.22;;;;;;;15.90;50.27;101195.50;5044281;28;20048;-68
2021/07/04 00:55:13;;;;;;;6.47;3.38;;;;;;;16.04;49.80;101194.78;5051086;28;20029;-68
2021/07/04 00:57:39;;;;;;;3.97;2.50;;;;;;;16.11;49.39;101190.00;5040734;28;20062;-68
2021/07/04 01:00:09;;;;;;;3.03;2.70;;;;;;;15.99;50.26;101200.28;5037875;28;20040;-68
2021/07/04 01:02:35;;;;;;;7.03;2.83;;;;;;;16.12;49.52;101196.94;5043353;28;20050;-68
2021/07/04 01:05:09;;;;;;;5.35;2.90;;;;;;;16.14;49.39;101193.28;5039885;28;20090;-68
2021/07/04 01:07:37;;;;;;;3.55;2.78;;;;;;;16.10;49.45;101197.03;5044377;28;20057;-68
2021/07/04 01:10:05;;;;;;;3.45;1.92;;;;;;;16.13;49.83;101194.22;5024432;28;20037;-68
2021/07/04 01:12:31;;;;;;;3.95;2.50;;;;;;;16.14;50.06;101192.44;5035631;28;20040;-68
2021/07/04 01:14:56;;;;;;;4.78;2.65;;;;;;;16.21;49.91;101189.34;5042320;28;20375;-68
2021/07/04 01:17:22;;;;;;;2.67;2.13;;;;;;;16.25;49.74;101189.16;5043041;28;20485;-67
2021/07/04 01:19:49;;;;;;;4.10;2.00;;;;;;;16.34;49.70;101189.47;5043794;28;20520;-70
2021/07/04 01:22:18;;;;;;;2.55;2.33;;;;;;;16.40;49.38;101181.19;5043274;28;20705;-69
2021/07/04 01:24:44;;;;;;;3.13;2.53;;;;;;;16.47;49.28;101179.03;5043504;28;20102;-69
2021/07/04 01:27:10;;;;;;;4.68;1.77;;;;;;;16.50;49.42;101184.13;5029427;28;20051;-68
2021/07/04 01:29:35;;;;;;;4.40;2.83;;;;;;;16.45;49.49;101186.19;5047572;28;20493;-69
2021/07/04 01:32:03;;;;;;;3.42;2.78;;;;;;;16.42;49.78;101183.75;5047291;28;20512;-69
2021/07/04 01:34:29;;;;;;;6.13;2.95;;;;;;;16.48;49.94;101191.28;5030224;28;20040;-69
2021/07/04 01:36:56;;;;;;;4.00;2.90;;;;;;;16.51;49.64;101184.94;5042306;28;20231;-69
2021/07/04 01:39:22;;;;;;;4.78;3.17;;;;;;;16.55;49.69;101181.19;5041555;28;20127;-69
2021/07/04 01:41:56;;;;;;;4.32;3.15;;;;;;;16.60;49.43;101168.59;5042140;28;20037;-69
2021/07/04 01:44:25;;;;;;;5.65;3.60;;;;;;;16.61;49.34;101176.41;5043098;28;20135;-69
2021/07/04 01:46:51;;;;;;;3.33;3.00;;;;;;;16.69;49.48;101172.44;5043200;28;20056;-70
2021/07/04 01:49:18;;;;;;;4.85;3.80;;;;;;;16.66;49.24;101167.34;5040766;28;20034;-69
2021/07/04 01:51:45;;;;;;;2.92;2.50;;;;;;;16.71;48.78;101167.91;5051255;28;20295;-67
2021/07/04 01:54:18;;;;;;;4.05;3.17;;;;;;;16.71;48.94;101160.88;5040474;28;20040;-68
2021/07/04 01:56:46;;;;;;;5.70;3.00;;;;;;;16.67;49.07;101169.91;5042290;28;20025;-67
2021/07/04 01:59:12;;;;;;;2.65;2.05;;;;;;;16.71;49.05;101160.88;5044101;28;20052;-68
2021/07/04 02:01:54;;;;;;;2.58;2.33;;;;;;;16.74;48.82;101158.03;5043324;28;20086;-69
2021/07/04 02:04:20;;;;;;;4.25;3.10;;;;;;;16.68;48.97;101161.03;5047642;28;20033;-68
2021/07/04 02:06:55;;;;;;;3.80;3.15;;;;;;;16.57;49.30;101158.19;5042024;28;20040;-68
2021/07/04 02:09:20;;;;;;;3.92;3.60;;;;;;;16.47;49.02;101159.72;5042507;28;20123;-68
2021/07/04 02:11:47;;;;;;;5.50;3.15;;;;;;;16.47;49.57;101155.28;5047322;28;20481;-68
2021/07/04 02:14:14;;;;;;;5.57;2.70;;;;;;;16.39;49.81;101153.09;5043605;28;20025;-68
2021/07/04 02:17:03;;;;;;;4.50;3.08;;;;;;;16.38;49.54;101151.41;5041830;28;20659;-68
2021/07/04 02:19:51;;;;;;;4.20;3.13;;;;;;;16.34;49.61;101149.91;5044492;28;20037;-68
2021/07/04 02:22:22;;;;;;;3.05;2.75;;;;;;;16.30;49.96;101148.38;5058138;28;20292;-68
2021/07/04 02:25:04;;;;;;;2.92;2.63;;;;;;;16.31;49.80;101147.44;5038123;28;20397;-68
2021/07/04 02:27:33;;;;;;;3.95;2.92;;;;;;;16.25;49.94;101139.91;5040820;28;20071;-68
2021/07/04 02:30:07;;;;;;;2.58;2.35;;;;;;;16.13;50.30;101137.97;5042924;28;20120;-68
2021/07/04 02:32:37;;;;;;;7.38;3.38;;;;;;;16.21;49.88;101147.13;5041185;28;20028;-67
2021/07/04 02:35:05;;;;;;;4.03;3.10;;;;;;;16.24;50.13;101147.91;5040828;28;20040;-68
2021/07/04 02:37:32;;;;;;;3.75;2.88;;;;;;;16.25;50.00;101150.44;5042940;28;20097;-67
2021/07/04 02:40:09;;;;;;;2.95;2.75;;;;;;;16.20;49.92;101144.63;5044038;28;20082;-68
2021/07/04 02:42:37;;;;;;;3.00;2.35;;;;;;;16.23;49.91;101149.69;5044222;28;20037;-69
2021/07/04 02:45:04;;;;;;;3.75;2.85;;;;;;;16.18;49.87;101152.59;5039995;28;20061;-68
2021/07/04 02:47:31;;;;;;;2.78;2.22;;;;;;;16.23;50.16;101151.50;5037268;28;20044;-68
2021/07/04 02:50:02;;;;;;;5.80;2.45;;;;;;;16.30;49.79;101151.00;5045119;28;20080;-68
2021/07/04 02:52:30;;;;;;;2.63;2.38;;;;;;;16.36;49.54;101149.81;5044108;28;20072;-68
2021/07/04 02:54:56;;;;;;;6.35;3.35;;;;;;;16.33;49.57;101150.84;5043028;28;20474;-68
2021/07/04 02:57:28;;;;;;;6.30;3.58;;;;;;;16.31;49.55;101158.00;5042545;28;20555;-67
2021/07/04 02:59:58;;;;;;;6.28;2.95;;;;;;;16.19;49.55;101148.16;5044094;28;20037;-68
2021/07/04 03:02:24;;;;;;;4.32;3.20;;;;;;;16.15;49.51;101147.53;5042786;28;20030;-67
2021/07/04 03:04:54;;;;;;;4.25;3.53;;;;;;;16.06;50.13;101149.84;5042452;28;20441;-67
2021/07/04 03:07:21;;;;;;;3.58;2.72;;;;;;;16.08;50.49;101145.31;5030407;28;20025;-69
2021/07/04 03:09:47;;;;;;;4.35;3.33;;;;;;;15.98;50.63;101151.09;5041807;28;20033;-68
2021/07/04 03:12:17;;;;;;;4.28;3.35;;;;;;;16.07;50.35;101143.63;5041735;28;20028;-68
2021/07/04 03:14:44;;;;;;;3.85;3.45;;;;;;;16.03;50.46;101145.59;5042400;28;20608;-68
2021/07/04 03:17:11;;;;;;;4.78;3.40;;;;;;;15.98;50.72;101134.44;5044133;28;20069;-69
2021/07/04 03:19:37;;;;;;;4.78;3.75;;;;;;;15.98;50.65;101139.72;5042643;28;20412;-70
2021/07/04 03:22:05;;;;;;;4.10;2.55;;;;;;;16.02;51.22;101145.69;5043357;28;20033;-70
2021/07/04 03:24:32;;;;;;;5.53;3.10;;;;;;;16.11;50.85;101134.63;5044514;28;20065;-71
2021/07/04 03:27:01;;;;;;;3.35;2.45;;;;;;;16.13;51.11;101138.84;5041161;28;20087;-70
2021/07/04 03:29:28;;;;;;;4.72;3.50;;;;;;;16.20;50.61;101139.34;5029309;28;20024;-70
2021/07/04 03:31:53;;;;;;;4.95;3.50;;;;;;;16.08;50.83;101140.06;5042153;28;20566;-70
2021/07/04 03:34:19;;;;;;;3.85;3.45;;;;;;;15.95;51.32;101139.88;5044083;28;20031;-70
2021/07/04 03:36:48;;;;;;;3.80;3.25;;;;;;;16.03;51.13;101131.56;5042244;28;20040;-70
2021/07/04 03:39:14;;;;;;;4.00;2.78;;;;;;;16.03;51.52;101134.22;5043205;28;20060;-70
2021/07/04 03:41:43;;;;;;;4.13;3.75;;;;;;;16.12;50.46;101136.31;5045024;28;20033;-70
2021/07/04 03:44:10;;;;;;;4.03;3.25;;;;;;;16.02;51.11;101135.13;5048050;28;20079;-70
2021/07/04 03:46:40;;;;;;;3.95;3.55;;;;;;;16.00;51.50;101144.00;5043243;28;20044;-70
2021/07/04 03:49:06;;;;;;;4.43;3.67;;;;;;;16.03;51.11;101136.84;5038999;28;20072;-70
2021/07/04 03:51:38;;;;;;;5.65;2.85;;;;;;;16.15;51.26;101144.00;5041204;28;20048;-70
2021/07/04 03:54:07;;;;;;;4.07;3.45;;;;;;;16.20;50.87;101128.78;5043224;28;20037;-72
2021/07/04 03:56:33;;;;;;;3.80;3.42;;;;;;;16.21;50.77;101133.09;5040967;28;20041;-71
2021/07/04 03:59:02;;;;;;;4.50;3.78;;;;;;;16.12;50.88;101133.66;5039818;28;20088;-69
2021/07/04 04:01:28;;;;;;;4.90;3.15;;;;;;;16.24;51.13;101132.91;5034926;28;20045;-69
2021/07/04 04:03:54;;;;;;;5.82;3.63;;;;;;;16.24;51.16;101125.00;5041071;28;20438;-70
2021/07/04 04:06:21;;;;;;;5.35;4.25;;;;;;;16.12;51.32;101134.50;5039054;28;20033;-69
2021/07/04 04:08:53;;;;;;;3.58;3.28;;;;;;;16.13;51.52;101130.06;5037296;28;20037;-71
2021/07/04 04:11:26;;;;;;;4.15;3.70;;;;;;;16.18;51.08;101135.94;5040007;28;20045;-69
2021/07/04 04:14:02;;;;;;;6.50;4.20;;;;;;;16.08;51.48;101129.50;5039615;28;20102;-70
2021/07/04 04:16:28;;;;;;;5.90;4.35;;;;;;;16.11;51.27;101137.25;5046478;28;20035;-69
2021/07/04 04:18:54;;;;;;;6.78;4.55;;;;;;;16.09;51.47;101131.22;5041590;28;20029;-67
2021/07/04 04:21:22;;;;;;;4.15;3.75;;;;;;;16.13;51.66;101136.22;5039856;28;20486;-70
2021/07/04 04:23:56;;;;;;;5.25;4.07;;;;;;;16.08;51.47;101132.13;5038493;28;20111;-70
2021/07/04 04:26:23;;;;;;;6.70;4.28;;;;;;;15.99;51.39;101137.00;5038586;28;20026;-70
2021/07/04 04:28:49;;;;;;;3.88;3.45;;;;;;;16.06;51.54;101136.66;5042102;28;20047;-71
2021/07/04 04:31:16;;;;;;;6.78;3.83;;;;;;;16.10;51.42;101141.66;5027074;28;20029;-70
2021/07/04 04:33:42;;;;;;;4.88;3.50;;;;;;;16.14;51.75;101135.25;5037249;28;20158;-70
2021/07/04 04:36:08;;;;;;;7.05;4.72;;;;;;;16.23;51.15;101144.41;5038694;28;20195;-70
2021/07/04 04:38:33;;;;;;;4.68;3.92;;;;;;;16.28;51.29;101142.34;5038506;28;20041;-70
2021/07/04 04:40:58;;;;;;;8.35;4.78;;;;;;;16.32;50.93;101138.59;5048251;28;20061;-70
2021/07/04 04:43:24;;;;;;;6.00;4.38;;;;;;;16.40;51.07;101135.50;5044161;28;20039;-70
2021/07/04 04:45:49;;;;;;;4.00;3.55;;;;;;;16.56;50.85;101133.63;5040991;28;20102;-70
2021/07/04 04:48:15;;;;;;;4.45;2.80;;;;;;;16.76;50.59;101137.69;5040740;28;20516;-67
2021/07/04 04:50:40;;;;;;;5.50;4.07;;;;;;;16.88;49.84;101136.06;5038716;28;20585;-74
2021/07/04 04:53:06;;;;;;;4.05;3.65;;;;;;;16.91;49.88;101135.91;5048438;28;20338;-71
2021/07/04 04:55:31;;;;;;;6.95;4.15;;;;;;;16.88;49.34;101135.22;5045232;28;20040;-71
2021/07/04 04:57:57;;;;;;;5.90;3.58;;;;;;;16.81;49.80;101140.88;5042212;28;20101;-68
2021/07/04 05:00:22;;;;;;;5.07;4.10;;;;;;;16.60;50.04;101131.66;5038710;28;20025;-69
2021/07/04 05:02:48;;;;;;;5.68;4.20;;;;;;;16.66;50.16;101128.59;5039356;28;20052;-69
2021/07/04 05:05:16;;;;;;;5.85;3.28;;;;;;;16.64;49.97;101130.50;5046449;28;20115;-70
2021/07/04 05:07:42;;;;;;;5.72;4.28;;;;;;;16.61;50.45;101133.34;5039381;28;20112;-71
2021/07/04 05:10:08;;;;;;;7.20;4.13;;;;;;;16.61;50.49;101128.06;5039263;28;20016;-68
2021/07/04 05:12:34;;;;;;;5.95;4.32;;;;;;;16.66;50.65;101136.53;5055671;28;20044;-70
2021/07/04 05:14:59;;;;;;;6.43;3.97;;;;;;;16.69;50.64;101133.72;5039681;28;20703;-70
2021/07/04 05:17:25;;;;;;;3.65;3.35;;;;;;;16.76;50.54;101137.69;5023793;28;20029;-69
2021/07/04 05:19:50;;;;;;;5.90;4.63;;;;;;;16.53;50.58;101128.53;5038469;28;20033;-70
2021/07/04 05:22:23;;;;;;;4.95;3.75;;;;;;;16.65;50.93;101134.84;5039863;28;20166;-70
2021/07/04 05:24:51;;;;;;;5.40;4.90;;;;;;;16.78;49.96;101130.53;5040923;28;20033;-70
2021/07/04 05:27:19;;;;;;;5.75;5.15;;;;;;;16.89;49.60;101127.22;5041149;28;20103;-70
2021/07/04 05:29:45;;;;;;;5.90;4.55;;;;;;;17.01;49.66;101126.44;5042423;28;20040;-71
2021/07/04 05:32:10;;;;;;;4.88;4.40;;;;;;;17.14;49.17;101115.94;5041550;28;20036;-69
2021/07/04 05:34:36;;;;;;;5.07;4.57;;;;;;;17.18;49.45;101116.59;5022339;28;20123;-69
2021/07/04 05:37:02;;;;;;;7.88;4.72;;;;;;;17.47;48.88;101121.78;5042309;28;20067;-69
2021/07/04 05:39:29;;;;;;;4.95;4.53;;;;;;;17.77;48.62;101121.59;5049365;28;20033;-69
2021/07/04 05:41:54;;;;;;;7.38;4.75;;;;;;;17.81;47.87;101117.81;5042725;28;20040;-69
2021/07/04 05:44:20;;;;;;;20.02;10.00;;;;;;;18.23;46.57;101123.81;5037899;28;20261;-68
2021/07/04 05:46:47;;;;;;;6.93;4.85;;;;;;;18.41;47.03;101117.25;5039840;28;20029;-70
2021/07/04 05:49:12;;;;;;;6.38;4.45;;;;;;;18.32;46.38;101109.94;5038956;28;20482;-70
2021/07/04 05:51:40;;;;;;;8.25;5.03;;;;;;;18.37;46.07;101114.91;5039079;28;20120;-68
2021/07/04 05:54:06;;;;;;;6.75;3.95;;;;;;;18.46;47.05;101107.16;5054096;28;20059;-68
2021/07/04 05:56:31;;;;;;;5.18;4.65;;;;;;;18.56;45.63;101112.66;5038331;28;20481;-69
2021/07/04 05:59:06;;;;;;;5.28;4.78;;;;;;;18.63;45.90;101119.22;5036653;28;20091;-69
2021/07/04 06:01:34;;;;;;;5.95;5.15;;;;;;;20.24;42.23;101111.88;5043567;28;20034;-71
2021/07/04 06:03:59;;;;;;;11.48;4.28;;;;;;;20.29;43.69;101114.16;5046128;28;20076;-70
2021/07/04 06:06:25;;;;;;;6.55;4.53;;;;;;;20.66;41.24;101113.91;5042778;28;20025;-68
2021/07/04 06:08:51;;;;;;;4.57;4.20;;;;;;;19.88;42.12;101118.13;5043242;28;20037;-70
2021/07/04 06:11:17;;;;;;;4.68;4.10;;;;;;;19.66;44.01;101111.81;5042743;28;20056;-70
2021/07/04 06:13:42;;;;;;;3.97;3.53;;;;;;;19.82;44.56;101116.81;5045922;28;20064;-69
2021/07/04 06:16:09;;;;;;;6.32;3.78;;;;;;;20.12;44.15;101121.56;5041159;28;20025;-70
2021/07/04 06:18:38;;;;;;;5.63;4.15;;;;;;;20.19;43.44;101113.16;5044098;28;20115;-69
2021/07/04 06:21:03;;;;;;;5.10;4.60;;;;;;;20.96;42.40;101115.13;5040711;28;20131;-67
2021/07/04 06:23:29;;;;;;;5.80;4.60;;;;;;;20.91;41.59;101119.00;5040752;28;20493;-68
2021/07/04 06:25:54;;;;;;;8.60;5.88;;;;;;;20.68;42.53;101106.66;5043836;28;20033;-71
2021/07/04 06:28:20;;;;;;;5.40;4.60;;;;;;;21.13;42.33;101111.94;5041166;28;20037;-68
2021/07/04 06:30:46;;;;;;;4.53;4.13;;;;;;;21.59;40.72;101099.38;5042017;28;20055;-68
2021/07/04 06:33:11;;;;;;;6.50;4.68;;;;;;;21.90;40.42;101108.28;5046633;28;20059;-67
2021/07/04 06:35:39;;;;;;;6.18;4.00;;;;;;;22.70;39.31;101114.75;5051845;28;20446;-67
2021/07/04 06:38:04;;;;;;;9.50;5.28;;;;;;;22.69;38.19;101110.38;5042126;28;20064;-68
2021/07/04 06:40:30;;;;;;;6.35;4.32;;;;;;;22.07;39.47;101106.81;5039527;28;20083;-69
2021/07/04 06:42:55;;;;;;;5.10;4.43;;;;;;;21.51;41.01;101115.94;5041463;28;20037;-68
2021/07/04 06:45:21;;;;;;;15.82;8.32;;;;;;;20.89;43.27;101112.97;5041906;28;20033;-69
2021/07/04 06:47:48;;;;;;;6.95;5.47;;;;;;;20.41;43.64;101109.69;5041643;28;20068;-70
2021/07/04 06:50:19;;;;;;;7.93;5.90;;;;;;;20.18;44.72;101111.47;5043300;28;20033;-68
2021/07/04 06:52:46;;;;;;;5.20;4.80;;;;;;;19.95;45.66;101111.44;5042023;28;20296;-68
2021/07/04 06:55:12;;;;;;;6.00;5.38;;;;;;;20.13;45.81;101110.00;5040599;28;20278;-68
2021/07/04 06:57:38;;;;;;;19.48;9.98;;;;;;;20.21;45.02;101113.91;5040377;28;20071;-69
2021/07/04 07:00:10;;;;;;;6.65;5.22;;;;;;;20.33;44.07;101097.88;5038616;28;20071;-68
2021/07/04 07:02:39;;;;;;;7.38;5.60;;;;;;;20.01;45.69;101100.31;5028782;28;20195;-69
2021/07/04 07:05:06;;;;;;;8.18;5.70;;;;;;;19.97;45.81;101100.69;5041304;28;20430;-68
2021/07/04 07:07:35;;;;;;;6.78;5.55;;;;;;;19.73;45.66;101098.94;5042254;28;20075;-68
2021/07/04 07:10:00;;;;;;;7.72;6.25;;;;;;;19.66;46.78;101093.25;5039990;28;20037;-69
2021/07/04 07:12:26;;;;;;;5.63;3.65;;;;;;;19.90;46.93;101102.94;5040488;28;20349;-68
2021/07/04 07:14:51;;;;;;;6.47;4.80;;;;;;;19.99;46.52;101088.97;5041354;28;20112;-68
2021/07/04 07:17:17;;;;;;;11.15;6.53;;;;;;;19.87;46.87;101087.28;5046558;28;20105;-68
2021/07/04 07:19:43;;;;;;;6.38;5.68;;;;;;;19.26;48.21;101095.34;5041980;28;20244;-68
2021/07/04 07:22:15;;;;;;;8.13;5.55;;;;;;;19.47;47.60;101087.59;5042140;28;20028;-68
2021/07/04 07:24:40;;;;;;;5.88;4.47;;;;;;;19.77;47.65;101091.59;5041989;28;20455;-68
2021/07/04 07:27:06;;;;;;;8.00;5.00;;;;;;;19.92;47.21;101090.41;5045782;28;20447;-67
2021/07/04 07:29:32;;;;;;;7.32;4.68;;;;;;;19.92;47.02;101095.72;5036900;28;20040;-67
2021/07/04 07:31:57;;;;;;;4.88;4.07;;;;;;;19.95;47.37;101095.50;5051669;28;20142;-68
2021/07/04 07:34:23;;;;;;;8.07;5.55;;;;;;;19.86;46.69;101093.53;5043178;28;20036;-68
2021/07/04 07:36:53;;;;;;;7.68;5.13;;;;;;;19.81;47.28;101095.69;5042165;28;20040;-68
2021/07/04 07:39:18;;;;;;;7.82;5.72;;;;;;;19.89;46.87;101095.97;5042272;28;20028;-69
2021/07/04 07:41:44;;;;;;;9.55;5.75;;;;;;;19.97;47.09;101101.53;5041871;28;20048;-67
2021/07/04 07:44:12;;;;;;;9.10;6.22;;;;;;;19.91;46.52;101102.84;5040154;28;20040;-68
2021/07/04 07:46:38;;;;;;;6.93;5.32;;;;;;;20.00;46.96;101101.31;5042466;28;20045;-68
2021/07/04 07:49:04;;;;;;;10.60;6.97;;;;;;;20.29;46.24;101100.91;5037356;28;21139;-67
2021/07/04 07:51:43;;;;;;;8.73;6.60;;;;;;;20.37;45.76;101097.63;5055078;28;20037;-67
2021/07/04 07:54:11;;;;;;;6.30;5.63;;;;;;;20.65;46.13;101096.31;5043227;28;20090;-69
2021/07/04 07:56:37;;;;;;;10.40;5.97;;;;;;;20.82;44.97;101103.78;5040166;28;20440;-68
2021/07/04 07:59:02;;;;;;;10.93;8.27;;;;;;;20.68;44.48;101099.53;5040424;28;20029;-68
2021/07/04 08:01:28;;;;;;;11.10;6.97;;;;;;;20.50;45.01;101098.34;5040492;28;20032;-68
2021/07/04 08:03:58;;;;;;;9.77;6.10;;;;;;;20.49;45.33;101094.84;5040810;28;20266;-68
2021/07/04 08:06:26;;;;;;;9.57;7.25;;;;;;;20.52;45.19;101097.25;5042740;28;20033;-69
2021/07/04 08:08:51;;;;;;;9.65;6.07;;;;;;;20.86;44.38;101096.41;5037378;28;20097;-68
2021/07/04 08:11:26;;;;;;;11.88;6.60;;;;;;;20.90;44.02;101101.34;5037147;28;20095;-68
2021/07/04 08:13:51;;;;;;;9.13;6.53;;;;;;;20.89;44.01;101088.22;5049625;28;20029;-68
2021/07/04 08:16:17;;;;;;;7.97;6.00;;;;;;;21.04;44.55;101092.28;5041962;28;20036;-68
2021/07/04 08:18:43;;;;;;;8.50;6.15;;;;;;;21.23;43.90;101086.31;5038661;28;20052;-68
2021/07/04 08:21:09;;;;;;;5.97;5.35;;;;;;;21.28;43.29;101088.59;5036894;28;20442;-68
2021/07/04 08:23:34;;;;;;;7.18;5.35;;;;;;;21.20;43.51;101094.53;5036366;28;20042;-68
2021/07/04 08:26:00;;;;;;;9.45;4.97;;;;;;;21.30;43.68;101084.00;5036169;28;20041;-68
2021/07/04 08:28:28;;;;;;;9.50;5.88;;;;;;;20.96;44.30;101091.22;5032587;28;20048;-68
2021/07/04 08:30:53;;;;;;;5.55;3.42;;;;;;;20.68;44.60;101088.09;5035878;28;20146;-68
2021/07/04 08:33:19;;;;;;;6.07;4.30;;;;;;;21.02;43.95;101082.72;5033361;28;20278;-69
2021/07/04 08:35:45;;;;;;;8.10;4.40;;;;;;;21.31;44.61;101083.88;5037400;28;20060;-68
2021/07/04 08:38:13;;;;;;;4.70;3.95;;;;;;;21.71;42.40;101085.91;5037044;28;20038;-68
2021/07/04 08:40:39;;;;;;;5.65;3.55;;;;;;;22.21;40.90;101087.06;5036350;28;20413;-68
2021/07/04 08:43:05;;;;;;;4.68;3.90;;;;;;;22.74;40.60;101085.03;5037275;28;20285;-68
2021/07/04 08:45:36;;;;;;;4.10;3.10;;;;;;;23.05;39.41;101081.44;5038627;28;20566;-68
2021/07/04 08:48:01;;;;;;;3.67;2.85;;;;;;;23.26;38.16;101076.84;5036093;28;20043;-68
2021/07/04 08:50:27;;;;;;;5.47;2.85;;;;;;;23.18;38.65;101076.69;5037883;28;20609;-68
2021/07/04 08:52:52;;;;;;;3.35;3.05;;;;;;;23.31;39.15;101071.09;5038053;28;20043;-68
2021/07/04 08:55:18;;;;;;;3.28;2.15;;;;;;;24.50;36.50;101072.41;5038141;28;20108;-68
2021/07/04 08:57:44;;;;;;;3.45;3.10;;;;;;;26.01;34.78;101068.13;5035675;28;20410;-68
2021/07/04 09:00:16;;;;;;;4.10;3.08;;;;;;;25.38;34.25;101074.53;5050665;28;20032;-70
2021/07/04 09:02:42;;;;;;;4.38;3.40;;;;;;;25.04;35.74;101064.53;5033602;28;20044;-68
2021/07/04 09:05:10;;;;;;;5.95;3.00;;;;;;;24.46;35.90;101067.50;5038904;28;20643;-67
2021/07/04 09:07:37;;;;;;;2.58;2.33;;;;;;;24.45;35.99;101061.31;5036178;28;20139;-70
2021/07/04 09:10:18;;;;;;;2.65;2.25;;;;;;;23.57;37.61;101066.88;5033953;28;20493;-69
2021/07/04 09:12:45;;;;;;;4.00;2.50;;;;;;;23.90;37.24;101062.09;5038332;28;20037;-67
2021/07/04 09:15:14;;;;;;;4.25;2.28;;;;;;;23.58;37.78;101070.38;5039853;28;20437;-68
2021/07/04 09:17:45;;;;;;;3.28;2.50;;;;;;;24.11;37.54;101059.19;5023134;28;20025;-67
2021/07/04 09:20:31;;;;;;;3.15;2.78;;;;;;;24.23;36.31;101059.84;5039855;28;20032;-68
2021/07/04 09:22:59;;;;;;;3.80;3.22;;;;;;;25.02;36.12;101053.97;5045767;28;20155;-68
2021/07/04 09:25:35;;;;;;;5.38;3.30;;;;;;;23.59;36.11;101058.75;5034559;28;20041;-68
2021/07/04 09:28:02;;;;;;;4.22;3.05;;;;;;;24.52;36.02;101062.41;5051427;28;20250;-68
2021/07/04 09:30:39;;;;;;;6.25;3.03;;;;;;;25.26;34.75;101060.53;5035978;28;20603;-69
2021/07/04 09:33:15;;;;;;;6.22;3.25;;;;;;;25.47;33.72;101063.72;5033974;28;20036;-68
2021/07/04 09:35:59;;;;;;;3.90;2.95;;;;;;;25.40;34.47;101062.66;5034015;28;20404;-68
2021/07/04 09:38:30;;;;;;;4.10;2.40;;;;;;;26.53;32.18;101053.81;5040103;28;20029;-69
2021/07/04 09:40:56;;;;;;;4.60;3.92;;;;;;;27.22;31.30;101055.34;5040242;28;20072;-68
2021/07/04 09:43:22;;;;;;;3.53;3.28;;;;;;;28.05;29.47;101050.72;5039829;28;20137;-68
2021/07/04 09:45:57;;;;;;;5.70;3.60;;;;;;;28.28;29.81;101042.78;5038331;28;20509;-68
2021/07/04 09:48:31;;;;;;;3.97;2.88;;;;;;;27.40;29.74;101057.03;5038718;28;20533;-68
2021/07/04 09:51:02;;;;;;;3.60;2.20;;;;;;;26.56;32.54;101057.03;5041919;28;20063;-68
2021/07/04 09:53:37;;;;;;;4.45;3.25;;;;;;;26.40;33.87;101048.91;5042717;28;20104;-69
2021/07/04 09:56:23;;;;;;;4.00;3.60;;;;;;;26.03;32.75;101042.88;5040636;28;20477;-68
2021/07/04 09:58:51;;;;;;;3.58;3.25;;;;;;;25.70;33.63;101043.69;5038072;28;20071;-68
2021/07/04 10:01:31;;;;;;;3.25;2.85;;;;;;;25.67;34.83;101036.81;5037576;28;20081;-68
2021/07/04 10:03:57;;;;;;;5.25;4.70;;;;;;;24.68;34.90;101047.56;5039476;28;20040;-70
2021/07/04 10:06:22;;;;;;;4.13;3.63;;;;;;;24.09;36.76;101042.47;5041966;28;20405;-68
2021/07/04 10:08:51;;;;;;;3.17;2.40;;;;;;;25.19;35.93;101046.09;5040820;28;20055;-69
2021/07/04 10:11:17;;;;;;;3.42;2.90;;;;;;;25.42;35.20;101039.28;5039321;28;20203;-68
2021/07/04 10:13:44;;;;;;;5.85;3.17;;;;;;;25.06;34.66;101038.44;5041415;28;20124;-68
2021/07/04 10:16:21;;;;;;;3.08;2.78;;;;;;;24.37;35.56;101038.00;5042295;28;20389;-68
2021/07/04 10:18:48;;;;;;;3.28;2.42;;;;;;;24.48;35.15;101034.34;5046914;28;20029;-68
2021/07/04 10:21:18;;;;;;;4.43;3.97;;;;;;;24.48;36.14;101026.31;5038289;28;20486;-68
2021/07/04 10:23:50;;;;;;;3.88;2.78;;;;;;;24.98;35.51;101025.84;5033358;28;20045;-68
2021/07/04 10:26:19;;;;;;;5.65;5.15;;;;;;;25.36;34.26;101029.19;5040708;28;20084;-68
2021/07/04 10:28:48;;;;;;;3.95;3.55;;;;;;;25.86;34.32;101020.50;5038156;28;20035;-67
2021/07/04 10:31:19;;;;;;;4.28;3.95;;;;;;;25.86;33.87;101025.03;5043811;28;20060;-69
2021/07/04 10:33:45;;;;;;;2.83;2.53;;;;;;;26.11;32.56;101022.50;5036046;28;20453;-68
2021/07/04 10:36:11;;;;;;;6.10;2.63;;;;;;;25.47;33.48;101020.91;5060391;28;20401;-68
2021/07/04 10:38:42;;;;;;;4.10;2.90;;;;;;;25.10;34.57;101021.09;5036649;28;20043;-68
2021/07/04 10:41:33;;;;;;;2.35;2.03;;;;;;;25.68;33.57;101022.41;5034775;28;20180;-71
2021/07/04 10:44:05;;;;;;;3.00;2.70;;;;;;;25.09;34.59;101024.78;5039335;28;20109;-68
2021/07/04 10:46:44;;;;;;;3.30;2.47;;;;;;;24.96;33.88;101025.13;5038721;28;20047;-68
2021/07/04 10:49:17;;;;;;;2.22;2.03;;;;;;;24.89;35.04;101016.03;5035561;28;20040;-68
2021/07/04 10:52:00;;;;;;;3.60;3.30;;;;;;;24.26;34.74;101013.31;5037903;28;20108;-69
2021/07/04 10:54:38;;;;;;;3.45;3.10;;;;;;;24.08;35.87;101008.78;5038847;28;20171;-70
2021/07/04 10:57:07;;;;;;;3.53;3.03;;;;;;;24.05;36.54;101005.53;5039263;28;22174;-68
2021/07/04 10:59:32;;;;;;;4.15;2.95;;;;;;;23.76;37.11;101001.94;5039282;28;20061;-69
2021/07/04 11:02:00;;;;;;;4.18;3.05;;;;;;;23.75;37.01;101000.28;5039036;28;20533;-68
2021/07/04 11:04:31;;;;;;;6.70;4.05;;;;;;;23.46;38.13;101010.19;5041910;28;20120;-68
2021/07/04 11:06:57;;;;;;;;;;;;;;;24.17;36.36;100999.03;5038336;28;20119;-69
2021/07/04 11:09:23;;;;;;;3.90;3.47;;;;;;;24.58;35.42;100997.69;5037062;28;20635;-68
2021/07/04 11:11:49;;;;;;;3.50;2.92;;;;;;;25.44;35.39;100998.97;5038195;28;20045;-69
2021/07/04 11:14:14;;;;;;;4.38;3.35;;;;;;;26.20;33.48;100997.44;5044948;28;20021;-69
2021/07/04 11:17:02;;;;;;;7.15;3.45;;;;;;;25.99;33.64;100992.47;5036656;28;20055;-69
2021/07/04 11:19:28;;;;;;;4.25;2.70;;;;;;;26.45;33.28;100993.00;5035506;28;20159;-68
2021/07/04 11:21:58;;;;;;;4.15;3.08;;;;;;;25.75;32.28;100988.66;5039319;28;20103;-68
2021/07/04 11:24:26;;;;;;;4.25;2.53;;;;;;;25.16;34.09;100985.72;5037908;28;20111;-69
2021/07/04 11:27:27;;;;;;;4.90;3.28;;;;;;;24.38;35.41;100990.75;5038675;28;20033;-68
2021/07/04 11:30:17;;;;;;;4.00;3.42;;;;;;;24.02;35.64;100993.34;5041760;28;20091;-69